Time;durP1;ratioP1;P1;durP2;ratioP2;P2;SDS_P1;SDS_P2;PMS_P1;PMS_P2;Temp;Humidity;BMP_temperature;BMP_pressure;BME280_temperature;BME280_humidity;BME280_pressure;Samples;Min_cycle;Max_cycle;Signal;HPM_P1;HPM_P2
2021/01/12 00:01:47;;;;;;;8.43;3.97;;;1.80;1.00;;;;;;5053092;28;20623;-74
2021/01/12 00:04:17;;;;;;;9.35;5.25;;;1.80;1.00;;;;;;5042500;28;20187;-74
2021/01/12 00:06:53;;;;;;;8.43;4.57;;;;;;;;;;5033171;28;20659;-74
2021/01/12 00:09:19;;;;;;;16.30;6.00;;;1.80;1.00;;;;;;5040519;28;20688;-74
2021/01/12 00:15:08;;;;;;;9.57;4.50;;;1.80;1.00;;;;;;5052389;28;20237;-78
2021/01/12 00:20:55;;;;;;;10.98;4.95;;;1.80;1.00;;;;;;5036796;28;20311;-79
2021/01/12 00:26:42;;;;;;;9.38;3.95;;;1.80;1.00;;;;;;5056461;28;20175;-73
2021/01/12 00:29:11;;;;;;;15.20;4.83;;;1.70;1.00;;;;;;5048714;28;20616;-73
2021/01/12 00:31:43;;;;;;;11.05;5.75;;;1.80;1.00;;;;;;5037046;28;20243;-74
2021/01/12 00:34:12;;;;;;;8.55;4.15;;;1.80;1.00;;;;;;5056508;28;20188;-74
2021/01/12 00:36:43;;;;;;;5.65;3.92;;;1.80;1.00;;;;;;5053443;28;20180;-74
2021/01/12 00:39:18;;;;;;;13.25;6.05;;;1.90;1.00;;;;;;5056367;28;20171;-73
2021/01/12 00:41:57;;;;;;;13.20;5.22;;;1.90;1.00;;;;;;5056332;28;20187;-74
2021/01/12 00:44:24;;;;;;;12.07;5.55;;;1.90;1.00;;;;;;5055056;28;20226;-74
2021/01/12 00:46:53;;;;;;;20.45;5.25;;;1.90;1.00;;;;;;5055995;28;20691;-74
2021/01/12 00:49:24;;;;;;;10.18;5.50;;;1.90;1.00;;;;;;5048956;28;20197;-74
2021/01/12 00:51:53;;;;;;;19.90;5.25;;;1.90;1.00;;;;;;5036182;28;20184;-74
2021/01/12 00:54:40;;;;;;;12.48;5.63;;;1.90;1.00;;;;;;5050821;28;20713;-74
2021/01/12 01:00:41;;;;;;;18.55;4.60;;;1.90;1.00;;;;;;5055539;28;20203;-78
2021/01/12 01:03:46;;;;;;;16.52;5.07;;;1.90;1.00;;;;;;5046615;28;20663;-78
2021/01/12 01:06:41;;;;;;;12.02;4.88;;;1.90;1.00;;;;;;5050345;28;20182;-78
2021/01/12 01:09:58;;;;;;;8.45;4.38;;;1.90;1.00;;;;;;5050315;28;20591;-78
2021/01/12 01:19:08;;;;;;;6.72;4.03;;;1.90;1.00;;;;;;5055495;28;20246;-79
2021/01/12 01:24:56;;;;;;;8.25;5.32;;;1.90;1.00;;;;;;5054461;28;20182;-78
2021/01/12 01:27:21;;;;;;;15.57;6.60;;;1.90;1.00;;;;;;5055499;28;20172;-74
2021/01/12 01:29:53;;;;;;;6.03;2.47;;;1.90;1.00;;;;;;5052871;28;20168;-74
2021/01/12 01:32:18;;;;;;;12.38;5.15;;;2.00;1.00;;;;;;5044453;28;20607;-74
2021/01/12 01:34:47;;;;;;;4.63;2.87;;;1.90;1.00;;;;;;5055180;28;20229;-74
2021/01/12 01:37:17;;;;;;;4.03;2.53;;;2.00;1.00;;;;;;5054776;28;20180;-74
2021/01/12 01:39:47;;;;;;;10.75;5.18;;;2.00;1.00;;;;;;5042017;28;20172;-74
2021/01/12 01:42:13;;;;;;;16.15;6.80;;;;;;;;;;5034946;28;20189;-74
2021/01/12 01:44:53;;;;;;;8.10;3.30;;;2.00;1.00;;;;;;5035142;28;20207;-74
2021/01/12 01:47:24;;;;;;;13.10;6.05;;;2.00;1.00;;;;;;5035017;28;20600;-74
2021/01/12 01:50:11;;;;;;;9.95;5.03;;;2.00;1.00;;;;;;5039643;28;20163;-74
2021/01/12 01:52:53;;;;;;;7.30;3.72;;;2.00;1.00;;;;;;5054615;28;20280;-74
2021/01/12 01:55:20;;;;;;;14.85;5.70;;;2.00;1.00;;;;;;5054425;28;20175;-73
2021/01/12 01:57:59;;;;;;;10.27;5.57;;;2.00;1.00;;;;;;5055237;28;20182;-74
2021/01/12 02:00:36;;;;;;;21.05;6.25;;;2.00;1.00;;;;;;5054340;28;20183;-74
2021/01/12 02:03:16;;;;;;;20.77;6.80;;;2.10;1.00;;;;;;5053630;28;20179;-73
2021/01/12 02:05:51;;;;;;;12.90;6.00;;;2.10;1.00;;;;;;5053789;28;20209;-74
2021/01/12 02:08:31;;;;;;;11.75;5.65;;;2.10;1.00;;;;;;5049666;28;20198;-74
2021/01/12 02:11:01;;;;;;;16.33;5.85;;;2.10;1.00;;;;;;5053237;28;20674;-74
2021/01/12 02:16:50;;;;;;;13.95;4.20;;;2.00;1.00;;;;;;5034179;28;20191;-78
2021/01/12 02:20:04;;;;;;;15.40;5.45;;;2.00;1.00;;;;;;5049585;28;20178;-78
2021/01/12 02:22:31;;;;;;;11.98;5.30;;;2.00;1.00;;;;;;5052804;28;20207;-79
2021/01/12 02:24:57;;;;;;;11.73;4.93;;;1.90;1.00;;;;;;5053843;28;20247;-78
2021/01/12 02:27:29;;;;;;;10.40;5.47;;;;;;;;;;5052817;28;20306;-78
2021/01/12 02:29:59;;;;;;;11.07;5.22;;;1.90;1.00;;;;;;5054287;28;20866;-74
2021/01/12 02:32:35;;;;;;;3.95;3.10;;;2.00;1.00;;;;;;5054241;28;20168;-74
2021/01/12 02:35:06;;;;;;;6.38;3.80;;;2.00;1.00;;;;;;5054019;28;20190;-74
2021/01/12 02:37:43;;;;;;;8.20;4.85;;;2.00;1.00;;;;;;5053030;28;20217;-74
2021/01/12 02:40:29;;;;;;;10.00;5.00;;;2.00;1.00;;;;;;5045709;28;20619;-73
2021/01/12 02:43:28;;;;;;;11.27;5.35;;;2.00;1.00;;;;;;5054297;28;20552;-78
2021/01/12 02:46:46;;;;;;;7.03;3.58;;;1.90;1.00;;;;;;5053996;28;20179;-84
2021/01/12 02:50:04;;;;;;;7.60;4.47;;;1.90;1.00;;;;;;5042042;28;20173;-83
2021/01/12 02:52:30;;;;;;;5.70;3.60;;;1.90;1.00;;;;;;5052841;28;20171;-84
2021/01/12 02:58:17;;;;;;;15.35;5.63;;;1.90;1.00;;;;;;5044848;28;20226;-75
2021/01/12 03:00:53;;;;;;;11.47;5.63;;;1.90;1.00;;;;;;5053279;28;20188;-75
2021/01/12 03:03:19;;;;;;;10.70;4.90;;;1.90;1.00;;;;;;5051688;28;20187;-75
2021/01/12 03:05:59;;;;;;;11.63;5.93;;;1.90;1.00;;;;;;5053219;28;20239;-75
2021/01/12 03:08:25;;;;;;;12.15;5.25;;;;;;;;;;5050931;28;20872;-75
2021/01/12 03:10:51;;;;;;;7.72;4.00;;;1.90;1.00;;;;;;5044558;28;20639;-74
2021/01/12 03:16:41;;;;;;;11.98;5.45;;;2.00;1.00;;;;;;5041114;28;20214;-79
2021/01/12 03:19:41;;;;;;;14.15;5.15;;;2.00;1.00;;;;;;5050046;28;20179;-79
2021/01/12 03:22:58;;;;;;;13.20;4.32;;;2.00;1.00;;;;;;5052507;28;20242;-80
2021/01/12 03:25:29;;;;;;;8.15;3.72;;;2.00;1.00;;;;;;5053061;28;20175;-79
2021/01/12 03:28:11;;;;;;;11.27;5.43;;;1.90;1.00;;;;;;5053421;28;20171;-80
2021/01/12 03:30:36;;;;;;;9.30;5.93;;;2.00;1.00;;;;;;5053227;28;20179;-74
2021/01/12 03:33:05;;;;;;;10.70;4.60;;;2.00;1.00;;;;;;5033523;28;20164;-74
2021/01/12 03:35:41;;;;;;;13.95;6.72;;;2.00;1.00;;;;;;5033304;28;20192;-74
2021/01/12 03:38:07;;;;;;;5.28;3.30;;;2.00;1.00;;;;;;5044106;28;20163;-75
2021/01/12 03:40:47;;;;;;;9.73;6.20;;;2.00;1.00;;;;;;5037152;28;20173;-76
2021/01/12 03:43:46;;;;;;;8.15;4.82;;;2.00;1.00;;;;;;5064040;28;20930;-76
2021/01/12 03:49:34;;;;;;;8.93;4.07;;;2.00;1.00;;;;;;5036700;28;20207;-76
2021/01/12 03:52:00;;;;;;;11.97;5.80;;;2.00;1.00;;;;;;5036925;28;20192;-75
2021/01/12 03:54:29;;;;;;;11.30;4.97;;;2.00;1.00;;;;;;5052284;28;20180;-74
2021/01/12 03:57:11;;;;;;;15.18;5.15;;;1.90;1.00;;;;;;5056851;28;20176;-75
2021/01/12 03:59:37;;;;;;;11.15;5.10;;;1.90;1.00;;;;;;5038507;28;20639;-75
2021/01/12 04:02:05;;;;;;;8.90;4.07;;;;;;;;;;5056723;28;20214;-75
2021/01/12 04:04:35;;;;;;;5.75;3.92;;;1.80;1.00;;;;;;5056113;28;20846;-74
2021/01/12 04:07:05;;;;;;;6.47;4.28;;;1.80;1.00;;;;;;5056903;28;20163;-74
2021/01/12 04:09:31;;;;;;;13.50;5.93;;;1.80;1.00;;;;;;5056764;28;20243;-75
2021/01/12 04:11:59;;;;;;;10.40;5.53;;;1.80;1.00;;;;;;5056788;28;20241;-75
2021/01/12 04:14:58;;;;;;;13.27;5.45;;;1.80;1.00;;;;;;5057270;28;20164;-79
2021/01/12 04:17:46;;;;;;;11.88;5.80;;;1.70;1.00;;;;;;5052700;28;20195;-79
2021/01/12 04:23:33;;;;;;;5.57;3.50;;;1.70;1.00;;;;;;5056072;28;20187;-79
2021/01/12 04:26:34;;;;;;;11.57;5.23;;;1.70;1.00;;;;;;5056332;28;20152;-79
2021/01/12 04:29:11;;;;;;;10.57;4.93;;;1.70;1.00;;;;;;5035537;28;20171;-74
2021/01/12 04:31:41;;;;;;;8.30;4.55;;;1.60;1.00;;;;;;5043288;28;20611;-74
2021/01/12 04:34:29;;;;;;;4.30;2.90;;;1.60;1.00;;;;;;5056552;28;20506;-75
2021/01/12 04:36:54;;;;;;;9.57;4.55;;;1.50;1.00;;;;;;5056357;28;20170;-74
2021/01/12 04:39:23;;;;;;;10.70;3.70;;;1.50;1.00;;;;;;5056591;28;20168;-74
2021/01/12 04:41:59;;;;;;;7.07;3.17;;;1.50;1.00;;;;;;5055961;28;20756;-74
2021/01/12 04:48:02;;;;;;;6.18;4.00;;;1.50;1.00;;;;;;5056376;28;20163;-85
2021/01/12 04:54:02;;;;;;;9.20;5.95;;;1.40;1.00;;;;;;5056192;28;20198;-80
2021/01/12 05:03:52;;;;;;;5.85;4.60;;;1.40;1.00;;;;;;5055555;28;20565;-79
2021/01/12 05:06:39;;;;;;;7.55;3.38;;;1.40;1.00;;;;;;5054342;28;20266;-79
2021/01/12 05:09:23;;;;;;;11.70;4.38;;;1.40;1.00;;;;;;5055527;28;20160;-80
2021/01/12 05:15:12;;;;;;;11.40;5.32;;;1.40;1.00;;;;;;5055896;28;20182;-79
2021/01/12 05:21:03;;;;;;;5.85;3.47;;;1.40;1.00;;;;;;5035673;28;20195;-82
2021/01/12 05:26:50;;;;;;;7.53;3.78;;;1.40;1.00;;;;;;5035171;28;20218;-79
2021/01/12 05:29:16;;;;;;;10.80;5.50;;;1.40;1.00;;;;;;5035803;28;20192;-74
2021/01/12 05:31:46;;;;;;;4.43;2.70;;;1.40;1.00;;;;;;5035304;28;20168;-75
2021/01/12 05:37:34;;;;;;;4.72;3.10;;;1.40;1.00;;;;;;5054946;28;20195;-75
2021/01/12 05:43:49;;;;;;;9.75;4.82;;;1.40;1.00;;;;;;5054811;28;20257;-75
2021/01/12 05:46:15;;;;;;;2.72;2.53;;;1.50;1.00;;;;;;5033233;28;20192;-75
2021/01/12 05:48:47;;;;;;;9.73;4.80;;;;;;;;;;5032944;28;20218;-74
2021/01/12 05:55:14;;;;;;;9.18;4.50;;;1.40;1.00;;;;;;5032933;28;20235;-75
2021/01/12 05:58:18;;;;;;;7.63;3.15;;;1.50;1.00;;;;;;5029442;28;20192;-86
2021/01/12 06:01:28;;;;;;;8.93;5.00;;;1.40;1.00;;;;;;5032800;28;20192;-81
2021/01/12 06:03:54;;;;;;;8.02;4.38;;;1.50;1.00;;;;;;5011704;28;20224;-82
2021/01/12 06:09:42;;;;;;;3.08;1.83;;;1.50;1.00;;;;;;5012590;28;20667;-82
2021/01/12 06:12:17;;;;;;;7.43;4.38;;;;;;;;;;5032021;28;20184;-82
2021/01/12 06:15:02;;;;;;;7.43;3.58;;;1.50;1.00;;;;;;5032710;28;20198;-74
2021/01/12 06:17:48;;;;;;;9.10;5.22;;;1.40;1.00;;;;;;5030252;28;20176;-75
2021/01/12 06:20:43;;;;;;;8.68;4.80;;;1.40;1.00;;;;;;5023792;28;20191;-75
2021/01/12 06:23:44;;;;;;;12.88;4.30;;;1.50;1.00;;;;;;5036117;28;20226;-75
2021/01/12 06:26:13;;;;;;;11.80;3.15;;;1.50;1.00;;;;;;5038187;28;20176;-75
2021/01/12 06:28:42;;;;;;;7.63;3.60;;;1.40;1.00;;;;;;5054373;28;20156;-75
2021/01/12 06:31:11;;;;;;;9.70;4.50;;;1.40;1.00;;;;;;5051066;28;20176;-83
2021/01/12 06:34:29;;;;;;;8.73;5.50;;;1.50;1.00;;;;;;5054169;28;20587;-83
2021/01/12 06:40:19;;;;;;;11.70;5.03;;;1.50;1.00;;;;;;5046220;28;20215;-86
2021/01/12 06:46:06;;;;;;;10.55;4.28;;;1.50;1.00;;;;;;5035100;28;20179;-86
2021/01/12 06:48:44;;;;;;;11.63;5.13;;;1.50;1.00;;;;;;5049433;28;20631;-83
2021/01/12 06:54:41;;;;;;;6.20;4.07;;;;;;;;;;5034083;28;20187;-83
2021/01/12 07:00:38;;;;;;;10.55;3.05;;;1.50;1.00;;;;;;5033997;28;20195;-75
2021/01/12 07:03:11;;;;;;;8.15;4.28;;;1.50;1.00;;;;;;5036315;28;20187;-75
2021/01/12 07:05:47;;;;;;;4.05;3.15;;;1.50;1.00;;;;;;5050217;28;20176;-75
2021/01/12 07:08:14;;;;;;;6.35;3.30;;;1.50;1.00;;;;;;5043458;28;20661;-75
2021/01/12 07:11:05;;;;;;;12.02;5.35;;;1.50;1.00;;;;;;5033864;28;20592;-75
2021/01/12 07:13:53;;;;;;;5.93;3.78;;;1.50;1.00;;;;;;5040639;28;20168;-75
2021/01/12 07:16:41;;;;;;;6.45;3.85;;;1.50;1.00;;;;;;5053840;28;20565;-84
2021/01/12 07:22:40;;;;;;;7.07;3.85;;;1.50;1.00;;;;;;5033362;28;20219;-83
2021/01/12 07:29:22;;;;;;;4.57;2.47;;;1.60;1.00;;;;;;5057675;28;20170;-83
2021/01/12 07:32:41;;;;;;;7.22;2.97;;;1.60;1.00;;;;;;5038100;28;20164;-83
2021/01/12 07:38:30;;;;;;;8.52;3.33;;;1.60;1.00;;;;;;5057289;28;20540;-83
2021/01/12 07:41:00;;;;;;;6.15;3.83;;;;;;;;;;5057364;28;20155;-81
2021/01/12 07:43:43;;;;;;;6.90;3.83;;;;;;;;;;5047872;28;20196;-82
2021/01/12 07:46:09;;;;;;;5.43;3.65;;;;;;;;;;5038625;28;20247;-83
2021/01/12 07:48:36;;;;;;;3.92;2.25;;;;;;;;;;5055297;28;20176;-84
2021/01/12 07:51:26;;;;;;;2.13;1.58;;;1.70;1.00;;;;;;5054603;28;20164;-74
2021/01/12 07:53:59;;;;;;;7.32;3.13;;;1.60;1.00;;;;;;5037155;28;20698;-75
2021/01/12 07:56:36;;;;;;;8.27;3.67;;;1.70;1.00;;;;;;5036914;28;20183;-75
2021/01/12 07:59:01;;;;;;;4.75;2.88;;;1.70;1.00;;;;;;5036779;28;20207;-75
2021/01/12 08:02:16;;;;;;;5.47;3.00;;;1.70;1.00;;;;;;5037615;28;20196;-85
2021/01/12 08:08:11;;;;;;;7.45;3.78;;;1.60;1.00;;;;;;5057090;28;20162;-83
2021/01/12 08:14:07;;;;;;;4.40;3.20;;;1.70;1.00;;;;;;5036911;28;20163;-75
2021/01/12 08:16:36;;;;;;;4.85;2.85;;;1.70;1.00;;;;;;5056850;28;20210;-76
2021/01/12 08:19:01;;;;;;;5.95;3.65;;;1.70;1.00;;;;;;5055706;28;20237;-84
2021/01/12 08:21:41;;;;;;;4.40;2.93;;;1.80;1.00;;;;;;5036406;28;20655;-83
2021/01/12 08:24:11;;;;;;;7.13;4.13;;;1.80;1.00;;;;;;5056077;28;20226;-75
2021/01/12 08:26:48;;;;;;;6.05;3.55;;;1.80;1.00;;;;;;5040565;28;20208;-75
2021/01/12 08:29:53;;;;;;;6.30;3.35;;;1.80;1.00;;;;;;5035528;28;20176;-75
2021/01/12 08:35:46;;;;;;;7.82;3.22;;;1.80;1.00;;;;;;5056572;28;20699;-84
2021/01/12 08:38:53;;;;;;;2.85;2.65;;;1.80;1.00;;;;;;5056185;28;20175;-75
2021/01/12 08:41:32;;;;;;;4.25;2.55;;;1.90;1.00;;;;;;5039167;28;20191;-75
2021/01/12 08:44:01;;;;;;;6.15;2.95;;;2.00;1.00;;;;;;5036338;28;20202;-75
2021/01/12 08:47:16;;;;;;;3.38;2.83;;;1.90;1.00;;;;;;5036833;28;20252;-83
2021/01/12 08:49:42;;;;;;;2.72;2.30;;;2.00;1.00;;;;;;5036153;28;20262;-75
2021/01/12 08:52:17;;;;;;;3.50;2.17;;;2.00;1.00;;;;;;5035984;28;20215;-75
2021/01/12 08:54:47;;;;;;;4.20;2.10;;;2.00;1.00;;;;;;5036167;28;20174;-75
2021/01/12 08:57:52;;;;;;;3.22;2.53;;;2.00;1.00;;;;;;5049291;28;20176;-74
2021/01/12 09:00:28;;;;;;;9.48;2.33;;;2.10;1.00;;;;;;5043331;28;20199;-75
2021/01/12 09:03:25;;;;;;;4.13;2.60;;;2.10;1.00;;;;;;5040486;28;20669;-74
2021/01/12 09:06:23;;;;;;;5.85;2.47;;;2.10;1.00;;;;;;5047063;28;20201;-83
2021/01/12 09:12:18;;;;;;;3.90;1.80;;;2.20;1.00;;;;;;5055679;28;20237;-75
2021/01/12 09:14:47;;;;;;;2.13;1.85;;;2.20;1.00;;;;;;5038647;28;20654;-75
2021/01/12 09:17:20;;;;;;;6.82;2.25;;;2.20;1.00;;;;;;5055925;28;20168;-83
2021/01/12 09:20:23;;;;;;;2.78;2.03;;;2.30;1.00;;;;;;5053461;28;20226;-83
2021/01/12 09:23:09;;;;;;;2.72;1.65;;;2.40;1.00;;;;;;5061179;28;20550;-75
2021/01/12 09:25:37;;;;;;;5.10;2.20;;;2.30;1.00;;;;;;5053795;28;20178;-75
2021/01/12 09:28:16;;;;;;;1.52;1.42;;;2.40;1.00;;;;;;5055580;28;20655;-75
2021/01/12 09:30:44;;;;;;;2.17;1.45;;;2.40;1.00;;;;;;5055157;28;20181;-83
2021/01/12 09:33:45;;;;;;;2.53;1.58;;;2.40;1.00;;;;;;5054561;28;20581;-83
2021/01/12 09:36:18;;;;;;;1.50;1.40;;;2.40;1.00;;;;;;5037260;28;20679;-74
2021/01/12 09:38:52;;;;;;;1.60;1.45;;;2.40;1.00;;;;;;5035123;28;20655;-75
2021/01/12 09:41:23;;;;;;;1.00;1.00;;;2.50;1.00;;;;;;5035117;28;20654;-75
2021/01/12 09:44:11;;;;;;;0.93;0.93;;;2.60;1.00;;;;;;5035173;28;20164;-83
2021/01/12 09:50:39;;;;;;;0.60;0.60;;;2.60;1.00;;;;;;5035093;28;20160;-83
2021/01/12 09:53:17;;;;;;;2.28;0.90;;;2.60;1.00;;;;;;5034865;28;20206;-83
2021/01/12 09:58:54;;;;;;;1.42;0.80;;;2.70;1.00;;;;;;5035085;28;20200;-84
2021/01/12 10:01:59;;;;;;;1.47;1.00;;;2.70;1.00;;;;;;5034779;28;20258;-83
2021/01/12 10:07:53;;;;;;;0.90;0.82;;;2.80;1.00;;;;;;5048339;28;20195;-76
2021/01/12 10:10:31;;;;;;;0.75;0.75;;;2.90;1.00;;;;;;5054351;28;20156;-83
2021/01/12 10:13:29;;;;;;;1.55;0.85;;;2.90;1.00;;;;;;5054347;28;20200;-83
2021/01/12 10:15:54;;;;;;;10.85;2.60;;;2.90;1.00;;;;;;5051654;28;20238;-82
2021/01/12 10:18:23;;;;;;;4.17;1.30;;;3.00;1.00;;;;;;5051580;28;20184;-75
2021/01/12 10:21:05;;;;;;;1.00;0.88;;;2.90;1.00;;;;;;5054490;28;20164;-75
2021/01/12 10:24:11;;;;;;;1.27;1.00;;;3.00;1.00;;;;;;5043040;28;20669;-75
2021/01/12 10:27:29;;;;;;;1.50;1.05;;;3.00;1.00;;;;;;5032954;28;20627;-75
2021/01/12 10:33:17;;;;;;;0.80;0.80;;;;;;;;;;5034988;28;20221;-83
2021/01/12 10:35:42;;;;;;;0.70;0.70;;;3.10;1.00;;;;;;5049081;28;20182;-76
2021/01/12 10:38:08;;;;;;;0.70;0.70;;;;;;;;;;5040307;28;20270;-83
2021/01/12 10:40:34;;;;;;;1.37;0.93;;;;;;;;;;5043573;28;20177;-83
2021/01/12 10:43:00;;;;;;;1.67;1.00;;;;;;;;;;5050351;28;20481;-83
2021/01/12 10:45:27;;;;;;;0.70;0.70;;;;;;;;;;5033401;28;20435;-83
2021/01/12 10:47:53;;;;;;;0.45;0.45;;;;;;;;;;5065566;28;20480;-75
2021/01/12 10:50:20;;;;;;;1.10;0.90;;;3.20;1.00;;;;;;5033086;28;20203;-83
2021/01/12 10:52:47;;;;;;;0.60;0.60;;;;;;;;;;5033336;28;20164;-84
2021/01/12 10:55:13;;;;;;;1.30;1.20;;;3.30;1.00;;;;;;5033460;28;20180;-76
2021/01/12 10:57:45;;;;;;;0.80;0.80;;;3.30;1.00;;;;;;5041564;28;20254;-75
2021/01/12 11:00:11;;;;;;;0.60;0.60;;;3.40;1.00;;;;;;5050434;28;20183;-75
2021/01/12 11:02:37;;;;;;;0.60;0.60;;;;;;;;;;5032949;28;20204;-75
2021/01/12 11:05:04;;;;;;;1.10;0.75;;;3.40;1.00;;;;;;5032824;28;20176;-75
2021/01/12 11:07:31;;;;;;;0.95;0.95;;;;;;;;;;5037017;28;20184;-84
2021/01/12 11:09:57;;;;;;;0.73;0.73;;;3.60;1.00;;;;;;5047754;28;20411;-84
2021/01/12 11:12:23;;;;;;;0.70;0.70;;;;;;;;;;5033390;28;20159;-85
2021/01/12 11:14:49;;;;;;;1.40;0.93;;;;;;;;;;5040085;28;20160;-84
2021/01/12 11:17:15;;;;;;;0.70;0.68;;;;;;;;;;5052723;28;20766;-77
2021/01/12 11:19:42;;;;;;;2.17;0.93;;;;;;;;;;5050214;28;20163;-76
2021/01/12 11:22:08;;;;;;;0.60;0.60;;;;;;;;;;5032384;28;20450;-76
2021/01/12 11:24:33;;;;;;;0.70;0.70;;;3.60;1.00;;;;;;5037412;28;20207;-79
2021/01/12 11:27:04;;;;;;;0.50;0.40;;;3.60;1.00;;;;;;5033757;28;20215;-76
2021/01/12 11:29:30;;;;;;;0.65;0.65;;;;;;;;;;5036321;28;20156;-76
2021/01/12 11:31:58;;;;;;;0.80;0.80;;;;;;;;;;5036992;28;20188;-76
2021/01/12 11:34:25;;;;;;;1.33;0.68;;;;;;;;;;5033147;28;20200;-85
2021/01/12 11:36:51;;;;;;;7.68;2.28;;;;;;;;;;5034840;28;20214;-84
2021/01/12 11:39:18;;;;;;;0.80;0.80;;;3.70;1.00;;;;;;5053023;28;20155;-85
2021/01/12 11:41:55;;;;;;;2.70;0.73;;;3.70;1.00;;;;;;5052907;28;20286;-85
2021/01/12 11:44:22;;;;;;;1.40;0.80;;;3.70;1.00;;;;;;5049414;28;20190;-84
2021/01/12 11:46:49;;;;;;;0.60;0.60;;;3.80;1.00;;;;;;5044333;28;20177;-84
2021/01/12 11:49:15;;;;;;;1.50;0.80;;;3.80;1.00;;;;;;5032999;28;20204;-84
2021/01/12 11:51:46;;;;;;;0.98;0.68;;;3.80;1.00;;;;;;5042590;28;20191;-83
2021/01/12 11:54:16;;;;;;;4.38;0.82;;;;;;;;;;5050167;28;20184;-75
2021/01/12 11:56:47;;;;;;;0.70;0.70;;;3.80;1.00;;;;;;5053041;28;20172;-84
2021/01/12 11:59:13;;;;;;;2.25;0.90;;;;;;;;;;5048699;28;20560;-83
2021/01/12 12:01:49;;;;;;;4.45;0.70;;;3.80;1.00;;;;;;5041032;28;20250;-76
2021/01/12 12:04:16;;;;;;;0.65;0.57;;;3.90;1.00;;;;;;5035224;28;20294;-76
2021/01/12 12:06:53;;;;;;;0.65;0.65;;;3.90;1.00;;;;;;5049973;28;20517;-84
2021/01/12 12:09:23;;;;;;;0.45;0.45;;;;;;;;;;5047634;28;20262;-76
2021/01/12 12:11:49;;;;;;;0.50;0.50;;;;;;;;;;5039667;28;20181;-77
2021/01/12 12:14:16;;;;;;;0.50;0.50;;;;;;;;;;5052849;28;20175;-76
2021/01/12 12:16:44;;;;;;;0.50;0.50;;;3.80;1.00;;;;;;5055787;28;20168;-75
2021/01/12 12:19:10;;;;;;;0.68;0.50;;;;;;;;;;5053311;28;20661;-82
2021/01/12 12:21:36;;;;;;;1.20;0.60;;;;;;;;;;5047688;28;20660;-83
2021/01/12 12:24:03;;;;;;;0.60;0.60;;;;;;;;;;5043020;28;20184;-83
2021/01/12 12:26:28;;;;;;;1.15;0.85;;;3.80;1.00;;;;;;5037778;28;20639;-83
2021/01/12 12:28:54;;;;;;;0.63;0.60;;;3.80;1.00;;;;;;5054467;28;20187;-82
2021/01/12 12:31:20;;;;;;;0.50;0.50;;;;;;;;;;5049035;28;20183;-75
2021/01/12 12:33:46;;;;;;;0.73;0.73;;;;;;;;;;5055841;28;20519;-76
2021/01/12 12:36:13;;;;;;;1.03;0.90;;;;;;;;;;5042754;28;20218;-76
2021/01/12 12:38:44;;;;;;;2.35;0.90;;;3.90;1.00;;;;;;5040797;28;20930;-76
2021/01/12 12:41:11;;;;;;;1.45;0.68;;;;;;;;;;5044644;28;20200;-76
2021/01/12 12:43:37;;;;;;;0.98;0.73;;;;;;;;;;5042540;28;20266;-82
2021/01/12 12:46:04;;;;;;;1.67;0.77;;;;;;;;;;5049274;28;20168;-75
2021/01/12 12:48:30;;;;;;;0.50;0.50;;;;;;;;;;5055440;28;20251;-76
2021/01/12 12:51:23;;;;;;;0.60;0.60;;;3.90;1.00;;;;;;5038556;28;20207;-82
2021/01/12 12:54:11;;;;;;;0.60;0.60;;;;;;;;;;5041869;28;20180;-82
2021/01/12 13:00:53;;;;;;;0.88;0.88;;;4.70;1.00;;;;;;5052156;28;20210;-82
2021/01/12 13:03:41;;;;;;;1.77;0.80;;;4.90;1.00;;;;;;5036418;28;20172;-79
2021/01/12 13:06:17;;;;;;;0.75;0.75;;;4.90;1.00;;;;;;5045066;28;20168;-75
2021/01/12 13:08:44;;;;;;;0.70;0.63;;;;;;;;;;5055366;28;20166;-75
2021/01/12 13:11:36;;;;;;;0.50;0.50;;;4.80;1.00;;;;;;5035816;28;20172;-75
2021/01/12 13:17:24;;;;;;;1.50;0.60;;;4.70;1.00;;;;;;5055875;28;20523;-81
2021/01/12 13:23:12;;;;;;;0.50;0.50;;;4.60;1.00;;;;;;5049014;28;20215;-84
2021/01/12 13:29:11;;;;;;;0.60;0.60;;;4.50;1.00;;;;;;5035552;28;20234;-76
2021/01/12 13:34:59;;;;;;;0.50;0.50;;;4.50;1.00;;;;;;5055938;28;20234;-76
2021/01/12 13:40:47;;;;;;;0.63;0.60;;;4.50;1.00;;;;;;5051966;28;20654;-74
2021/01/12 13:43:17;;;;;;;0.93;0.50;;;4.50;1.00;;;;;;5047199;28;20203;-75
2021/01/12 13:45:47;;;;;;;0.40;0.40;;;4.40;1.00;;;;;;5040113;28;20195;-74
2021/01/12 13:51:13;;;;;;;0.80;0.70;;;4.40;1.00;;;;;;5034275;28;20177;-74
2021/01/12 13:53:41;;;;;;;0.60;0.60;;;4.40;1.00;;;;;;5041093;28;20187;-74
2021/01/12 13:56:18;;;;;;;1.30;0.60;;;4.40;1.00;;;;;;5054637;28;20402;-74
2021/01/12 13:58:45;;;;;;;15.82;4.85;;;4.40;1.00;;;;;;5054039;28;20173;-74
2021/01/12 14:01:13;;;;;;;3.13;0.98;;;4.40;1.00;;;;;;5041987;28;20187;-80
2021/01/12 14:03:39;;;;;;;1.70;1.45;;;;;;;;;;5038847;28;20181;-79
2021/01/12 14:06:05;;;;;;;0.40;0.40;;;;;;;;;;5038578;28;20167;-80
2021/01/12 14:08:35;;;;;;;0.50;0.50;;;4.30;1.00;;;;;;5046541;28;20227;-80
2021/01/12 14:11:02;;;;;;;0.50;0.50;;;;;;;;;;5045182;28;20411;-81
2021/01/12 14:13:28;;;;;;;2.47;0.82;;;;;;;;;;5062704;28;20186;-81
2021/01/12 14:15:54;;;;;;;0.60;0.60;;;;;;;;;;5053647;28;20164;-82
2021/01/12 14:18:21;;;;;;;1.55;0.60;;;;;;;;;;5052308;28;20543;-79
2021/01/12 14:20:47;;;;;;;1.98;0.75;;;;;;;;;;5052960;28;20167;-80
2021/01/12 14:23:14;;;;;;;0.70;0.50;;;4.50;1.00;;;;;;5045900;28;20341;-85
2021/01/12 14:25:42;;;;;;;6.68;0.88;;;;;;;;;;5048246;28;20179;-88
2021/01/12 14:28:08;;;;;;;0.60;0.60;;;4.50;1.00;;;;;;5039693;28;20187;-82
2021/01/12 14:30:35;;;;;;;0.40;0.40;;;;;;;;;;5051526;28;20241;-81
2021/01/12 14:33:01;;;;;;;0.50;0.40;;;;;;;;;;5053463;28;20166;-75
2021/01/12 14:35:27;;;;;;;0.60;0.60;;;4.40;1.00;;;;;;5053930;28;20162;-83
2021/01/12 14:38:00;;;;;;;0.60;0.60;;;4.40;1.00;;;;;;5048920;28;20211;-81
2021/01/12 14:40:29;;;;;;;2.88;1.20;;;4.40;1.00;;;;;;5030561;28;20193;-80
2021/01/12 14:42:57;;;;;;;0.52;0.52;;;;;;;;;;5042976;28;20599;-75
2021/01/12 14:45:23;;;;;;;0.50;0.50;;;;;;;;;;5048507;28;20159;-75
2021/01/12 14:47:49;;;;;;;1.02;0.52;;;;;;;;;;5052836;28;20517;-75
2021/01/12 14:50:17;;;;;;;0.43;0.43;;;4.40;1.00;;;;;;5050690;28;20180;-82
2021/01/12 14:52:54;;;;;;;0.40;0.40;;;4.40;1.00;;;;;;5051716;28;20182;-72
2021/01/12 14:55:23;;;;;;;1.98;0.70;;;4.40;1.00;;;;;;5049170;28;20166;-74
2021/01/12 14:57:59;;;;;;;0.70;0.50;;;4.50;1.00;;;;;;5042635;28;20183;-75
2021/01/12 15:00:25;;;;;;;1.17;0.90;;;4.40;1.00;;;;;;5045671;28;20226;-75
2021/01/12 15:02:51;;;;;;;8.48;0.75;;;;;;;;;;5037553;28;20207;-75
2021/01/12 15:05:23;;;;;;;0.68;0.63;;;4.50;1.00;;;;;;5034351;28;20168;-83
2021/01/12 15:08:41;;;;;;;0.50;0.50;;;4.40;1.00;;;;;;5033977;28;20188;-83
2021/01/12 15:11:06;;;;;;;0.40;0.40;;;4.50;1.00;;;;;;5034091;28;20531;-82
2021/01/12 15:14:05;;;;;;;0.53;0.53;;;4.50;1.00;;;;;;5033921;28;20161;-82
2021/01/12 15:19:52;;;;;;;12.35;3.00;;;;;;;;;;5033769;28;20249;-72
2021/01/12 15:22:21;;;;;;;0.90;0.70;;;4.50;1.00;;;;;;5050993;28;20540;-72
2021/01/12 15:24:49;;;;;;;0.70;0.63;;;4.50;1.00;;;;;;5053128;28;20185;-72
2021/01/12 15:27:15;;;;;;;1.73;0.70;;;4.50;1.00;;;;;;5044541;28;20188;-72
2021/01/12 15:29:40;;;;;;;0.97;0.50;;;4.40;1.00;;;;;;5041017;28;20191;-72
2021/01/12 15:32:06;;;;;;;0.73;0.73;;;;;;;;;;5033487;28;20173;-72
2021/01/12 15:34:33;;;;;;;0.70;0.70;;;;;;;;;;5048941;28;20584;-72
2021/01/12 15:37:41;;;;;;;3.92;0.90;;;4.40;1.00;;;;;;5053340;28;20160;-81
2021/01/12 15:40:07;;;;;;;0.82;0.70;;;4.40;1.00;;;;;;5041324;28;20195;-81
2021/01/12 15:42:35;;;;;;;0.50;0.50;;;4.50;1.00;;;;;;5043155;28;20196;-83
2021/01/12 15:49:11;;;;;;;0.80;0.80;;;4.50;1.00;;;;;;5049366;28;20284;-82
2021/01/12 15:51:37;;;;;;;1.02;0.85;;;4.40;1.00;;;;;;5037577;28;20197;-72
2021/01/12 15:54:05;;;;;;;0.60;0.60;;;4.40;1.00;;;;;;5037402;28;20540;-73
2021/01/12 15:56:32;;;;;;;0.77;0.60;;;;;;;;;;5045287;28;20204;-71
2021/01/12 15:58:58;;;;;;;1.00;0.70;;;;;;;;;;5037021;28;20200;-72
2021/01/12 16:01:24;;;;;;;1.15;1.02;;;4.40;1.00;;;;;;5042808;28;20231;-72
2021/01/12 16:03:50;;;;;;;1.10;1.00;;;4.40;1.00;;;;;;5050832;28;20623;-72
2021/01/12 16:06:16;;;;;;;16.50;1.10;;;4.40;1.00;;;;;;5046789;28;20168;-73
2021/01/12 16:08:42;;;;;;;0.77;0.77;;;4.40;1.00;;;;;;5042317;28;20932;-73
2021/01/12 16:11:13;;;;;;;0.85;0.55;;;4.30;1.00;;;;;;5055696;28;20278;-73
2021/01/12 16:13:39;;;;;;;1.27;0.90;;;4.30;1.00;;;;;;5056421;28;20615;-73
2021/01/12 16:16:06;;;;;;;0.70;0.70;;;4.30;1.00;;;;;;5039133;28;20177;-73
2021/01/12 16:18:34;;;;;;;3.33;1.13;;;4.30;1.00;;;;;;5043467;28;20175;-73
2021/01/12 16:24:24;;;;;;;1.08;0.98;;;4.30;1.00;;;;;;5037165;28;20227;-83
2021/01/12 16:30:53;;;;;;;1.13;1.02;;;4.30;1.00;;;;;;5041444;28;20621;-82
2021/01/12 16:33:22;;;;;;;1.63;1.15;;;4.30;1.00;;;;;;5035410;28;20286;-83
2021/01/12 16:39:10;;;;;;;1.50;0.90;;;4.40;1.00;;;;;;5040450;28;20535;-83
2021/01/12 16:48:23;;;;;;;2.10;0.90;;;4.30;1.00;;;;;;5045565;28;20211;-81
2021/01/12 16:51:05;;;;;;;1.10;1.10;;;4.30;1.00;;;;;;5036376;28;20149;-83
2021/01/12 16:57:05;;;;;;;1.55;1.45;;;4.40;1.00;;;;;;5035000;28;20179;-83
2021/01/12 16:59:57;;;;;;;3.80;1.05;;;4.40;1.00;;;;;;5035589;28;20192;-82
2021/01/12 17:02:37;;;;;;;11.50;2.08;;;4.40;1.00;;;;;;5026119;28;20799;-81
2021/01/12 17:08:31;;;;;;;1.33;1.20;;;4.40;1.00;;;;;;5020118;28;20194;-72